createdAt,value
2018-02-19T00:00:01.664Z,67.00
2018-02-19T00:02:30.878Z,67.20
2018-02-19T00:04:59.349Z,67.20
2018-02-19T00:07:29.238Z,67.50
2018-02-19T00:09:57.371Z,66.80
2018-02-19T00:12:26.025Z,66.90
2018-02-19T00:14:54.105Z,67.00
2018-02-19T00:17:22.378Z,67.20
2018-02-19T00:19:51.276Z,67.30
2018-02-19T00:22:19.285Z,67.30
2018-02-19T00:24:47.222Z,67.30
2018-02-19T00:27:15.689Z,67.30
2018-02-19T00:29:43.409Z,67.40
2018-02-19T00:32:11.142Z,67.50
2018-02-19T00:34:38.843Z,67.50
2018-02-19T00:37:06.672Z,67.60
2018-02-19T00:39:35.639Z,67.50
2018-02-19T00:42:03.591Z,67.70
2018-02-19T00:44:31.765Z,67.80
2018-02-19T00:46:59.831Z,67.90
2018-02-19T00:49:27.904Z,68.00
2018-02-19T00:51:55.681Z,67.90
2018-02-19T00:54:23.353Z,68.00
2018-02-19T00:56:51.980Z,68.40
2018-02-19T00:59:20.739Z,68.40
2018-02-19T01:01:48.675Z,68.30
2018-02-19T01:04:17.262Z,68.10
2018-02-19T01:06:45.771Z,68.20
2018-02-19T01:09:14.203Z,68.20
2018-02-19T01:11:43.742Z,68.10
2018-02-19T01:14:11.889Z,68.20
2018-02-19T01:16:39.762Z,68.40
2018-02-19T01:19:07.471Z,68.30
2018-02-19T01:21:35.222Z,68.20
2018-02-19T01:24:03.978Z,67.90
2018-02-19T01:26:32.863Z,67.70
2018-02-19T01:29:00.732Z,67.90
2018-02-19T01:31:28.694Z,67.80
2018-02-19T01:33:56.583Z,67.90
2018-02-19T01:36:24.533Z,68.00
2018-02-19T01:38:52.318Z,67.90
2018-02-19T01:41:20.179Z,67.70
2018-02-19T01:43:48.541Z,67.40
2018-02-19T01:46:17.976Z,67.90
2018-02-19T01:48:47.041Z,67.30
2018-02-19T01:51:14.903Z,67.50
2018-02-19T01:53:42.774Z,67.10
2018-02-19T01:56:10.442Z,67.20
2018-02-19T01:58:39.224Z,67.00
2018-02-19T02:01:07.075Z,67.20
2018-02-19T02:03:35.369Z,67.70
2018-02-19T02:06:03.496Z,68.00
2018-02-19T02:08:31.156Z,68.00
2018-02-19T02:10:59.809Z,68.00
2018-02-19T02:13:27.657Z,67.90
2018-02-19T02:15:55.535Z,68.70
2018-02-19T02:18:23.222Z,67.90
2018-02-19T02:20:51.815Z,67.40
2018-02-19T02:23:19.530Z,67.40
2018-02-19T02:25:48.204Z,67.50
2018-02-19T02:28:15.906Z,67.50
2018-02-19T02:30:43.704Z,67.50
2018-02-19T02:33:11.612Z,67.60
2018-02-19T02:35:39.923Z,67.40
2018-02-19T02:38:07.831Z,67.50
2018-02-19T02:40:35.530Z,67.70
2018-02-19T02:43:03.591Z,67.70
2018-02-19T02:45:32.124Z,67.30
2018-02-19T02:47:59.956Z,67.30
2018-02-19T02:50:27.772Z,67.60
2018-02-19T02:52:55.402Z,67.80
2018-02-19T02:55:23.999Z,67.60
2018-02-19T02:57:51.781Z,67.20
2018-02-19T03:00:20.429Z,67.30
2018-02-19T03:02:48.854Z,67.90
2018-02-19T03:05:16.574Z,67.90
2018-02-19T03:07:45.065Z,68.20
2018-02-19T03:10:12.850Z,68.20
2018-02-19T03:12:41.459Z,68.20
2018-02-19T03:15:09.131Z,68.00
2018-02-19T03:17:36.846Z,67.90
2018-02-19T03:20:04.595Z,67.90
2018-02-19T03:22:32.267Z,68.00
2018-02-19T03:25:00.823Z,67.90
2018-02-19T03:27:28.589Z,68.10
2018-02-19T03:29:57.920Z,68.30
2018-02-19T03:32:25.814Z,68.30
2018-02-19T03:34:53.779Z,68.20
2018-02-19T03:37:21.469Z,68.10
2018-02-19T03:39:49.235Z,68.40
2018-02-19T03:42:17.012Z,68.50
2018-02-19T03:44:44.831Z,68.60
2018-02-19T03:47:12.495Z,68.40
2018-02-19T03:49:40.193Z,68.60
2018-02-19T03:52:07.872Z,68.60
2018-02-19T03:54:35.495Z,68.70
2018-02-19T03:57:03.239Z,68.60
2018-02-19T03:59:31.088Z,68.50
2018-02-19T04:01:58.753Z,68.50
2018-02-19T04:04:26.461Z,68.50
2018-02-19T04:06:54.250Z,68.30
2018-02-19T04:09:22.681Z,68.50
2018-02-19T04:11:50.430Z,68.50
2018-02-19T04:14:18.454Z,68.30
2018-02-19T04:16:47.024Z,68.20
2018-02-19T04:19:17.033Z,68.00
2018-02-19T04:21:45.696Z,68.00
2018-02-19T04:24:13.774Z,68.00
2018-02-19T04:26:41.605Z,67.90
2018-02-19T04:29:09.333Z,67.80
2018-02-19T04:31:37.022Z,67.80
2018-02-19T04:34:04.796Z,67.60
2018-02-19T04:36:32.553Z,67.60
2018-02-19T04:39:00.235Z,67.60
2018-02-19T04:41:27.955Z,67.50
2018-02-19T04:43:56.495Z,67.10
2018-02-19T04:49:25.139Z,67.10
2018-02-19T04:51:52.907Z,67.10
2018-02-19T04:54:21.500Z,67.00
2018-02-19T04:56:49.233Z,67.00
2018-02-19T04:59:16.984Z,67.30
2018-02-19T05:01:44.714Z,67.40
2018-02-19T05:04:13.235Z,67.40
2018-02-19T05:06:40.947Z,67.30
2018-02-19T05:09:10.469Z,67.10
2018-02-19T05:11:38.170Z,67.30
2018-02-19T05:14:05.885Z,67.30
2018-02-19T05:16:35.502Z,67.10
2018-02-19T05:19:03.604Z,66.70
2018-02-19T05:21:31.539Z,66.30
2018-02-19T05:23:59.355Z,66.30
2018-02-19T05:26:27.854Z,67.00
2018-02-19T05:28:56.287Z,66.30
2018-02-19T05:31:23.983Z,66.30
2018-02-19T05:33:52.555Z,66.20
2018-02-19T05:36:20.949Z,66.20
2018-02-19T05:38:48.625Z,66.20
2018-02-19T05:41:16.271Z,66.40
2018-02-19T05:43:44.791Z,66.20
2018-02-19T05:46:12.530Z,66.00
2018-02-19T05:48:40.205Z,66.10
2018-02-19T05:51:07.879Z,66.00
2018-02-19T05:53:35.579Z,65.80
2018-02-19T05:56:04.778Z,65.60
2018-02-19T05:58:33.592Z,65.40
2018-02-19T06:01:02.021Z,65.40
2018-02-19T06:03:29.748Z,65.40
2018-02-19T06:05:57.461Z,64.70
2018-02-19T06:08:25.260Z,65.20
2018-02-19T06:10:54.291Z,64.80
2018-02-19T06:13:22.006Z,64.70
2018-02-19T06:15:49.694Z,66.10
2018-02-19T06:18:17.387Z,65.00
2018-02-19T06:20:57.721Z,64.60
2018-02-19T06:23:26.296Z,64.70
2018-02-19T06:25:54.201Z,64.30
2018-02-19T06:28:22.171Z,64.30
2018-02-19T06:30:49.878Z,64.20
2018-02-19T06:33:18.344Z,64.50
2018-02-19T06:35:46.849Z,64.50
2018-02-19T06:38:16.342Z,64.10
2018-02-19T06:40:44.217Z,63.90
2018-02-19T06:43:11.875Z,63.70
2018-02-19T06:45:40.315Z,64.40
2018-02-19T06:48:08.015Z,64.40
2018-02-19T06:50:36.437Z,64.20
2018-02-19T06:53:04.109Z,64.10
2018-02-19T06:55:31.861Z,64.50
2018-02-19T06:57:59.796Z,63.60
2018-02-19T07:00:27.482Z,63.60
2018-02-19T07:02:55.203Z,63.10
2018-02-19T07:05:23.350Z,63.30
2018-02-19T07:07:51.068Z,63.40
2018-02-19T07:10:18.855Z,63.60
2018-02-19T07:12:46.561Z,63.80
2018-02-19T07:15:14.266Z,63.40
2018-02-19T07:17:42.056Z,63.70
2018-02-19T07:20:09.822Z,62.90
2018-02-19T07:22:37.642Z,63.10
2018-02-19T07:25:06.099Z,63.00
2018-02-19T07:27:34.483Z,63.00
2018-02-19T07:30:02.935Z,62.90
2018-02-19T07:32:30.706Z,62.90
2018-02-19T07:34:58.378Z,63.00
2018-02-19T07:37:26.069Z,63.40
2018-02-19T07:39:53.837Z,63.20
2018-02-19T07:42:21.536Z,62.70
2018-02-19T07:44:49.198Z,62.80
2018-02-19T07:47:16.925Z,63.10
2018-02-19T07:49:44.632Z,61.90
2018-02-19T07:52:12.269Z,59.90
2018-02-19T07:54:39.991Z,60.70
2018-02-19T07:57:08.465Z,60.40
2018-02-19T07:59:36.194Z,61.00
2018-02-19T08:02:03.986Z,60.40
2018-02-19T08:04:31.645Z,60.70
2018-02-19T08:06:59.305Z,61.00
2018-02-19T08:09:27.030Z,59.80
2018-02-19T08:11:54.699Z,60.20
2018-02-19T08:14:22.376Z,60.00
2018-02-19T08:16:50.063Z,59.80
2018-02-19T08:19:17.921Z,59.00
2018-02-19T08:21:45.596Z,59.90
2018-02-19T08:24:14.089Z,59.90
2018-02-19T08:26:42.554Z,59.80
2018-02-19T08:29:10.271Z,59.80
2018-02-19T08:31:37.974Z,60.30
2018-02-19T08:34:05.839Z,59.60
2018-02-19T08:36:35.214Z,58.60
2018-02-19T08:39:02.996Z,58.70
2018-02-19T08:41:31.741Z,58.80
2018-02-19T08:43:59.536Z,59.30
2018-02-19T08:46:27.285Z,59.50
2018-02-19T08:48:55.165Z,59.20
2018-02-19T08:51:23.101Z,58.70
2018-02-19T08:53:50.816Z,58.10
2018-02-19T08:56:18.880Z,58.20
2018-02-19T08:58:47.211Z,58.60
2018-02-19T09:01:15.143Z,57.30
2018-02-19T09:03:42.883Z,57.10
2018-02-19T09:06:10.603Z,58.30
2018-02-19T09:08:39.256Z,57.70
2018-02-19T09:11:06.974Z,56.70
2018-02-19T09:13:36.357Z,57.40
2018-02-19T09:16:04.081Z,57.40
2018-02-19T09:18:32.187Z,57.20
2018-02-19T09:21:01.743Z,56.90
2018-02-19T09:23:29.687Z,57.00
2018-02-19T09:25:57.364Z,56.90
2018-02-19T09:28:25.111Z,56.60
2018-02-19T09:30:52.918Z,56.60
2018-02-19T09:33:21.352Z,56.00
2018-02-19T09:35:49.145Z,56.00
2018-02-19T09:38:17.812Z,55.90
2018-02-19T09:40:46.231Z,56.80
2018-02-19T09:43:14.717Z,56.60
2018-02-19T09:45:51.358Z,56.60
2018-02-19T09:48:19.283Z,57.70
2018-02-19T09:50:47.185Z,55.70
2018-02-19T09:53:14.977Z,54.60
2018-02-19T09:55:42.703Z,56.20
2018-02-19T09:58:10.599Z,55.50
2018-02-19T10:00:39.182Z,55.10
2018-02-19T10:03:07.031Z,55.10
2018-02-19T10:05:34.775Z,54.60
2018-02-19T10:08:02.462Z,53.60
2018-02-19T10:10:30.515Z,53.90
2018-02-19T10:12:58.276Z,55.20
2018-02-19T10:15:26.031Z,55.20
2018-02-19T10:17:53.762Z,52.70
2018-02-19T10:20:22.287Z,52.00
2018-02-19T10:22:49.986Z,50.90
2018-02-19T10:25:18.417Z,50.40
2018-02-19T10:27:46.172Z,50.40
2018-02-19T10:30:14.055Z,51.40
2018-02-19T10:32:41.760Z,49.70
2018-02-19T10:35:10.242Z,48.00
2018-02-19T10:37:38.080Z,48.00
2018-02-19T10:40:05.850Z,47.30
2018-02-19T10:42:33.701Z,47.40
2018-02-19T10:45:01.725Z,47.80
2018-02-19T10:47:30.057Z,47.20
2018-02-19T10:49:57.825Z,46.50
2018-02-19T10:52:25.553Z,45.00
2018-02-19T10:54:53.259Z,45.70
2018-02-19T10:57:21.097Z,43.50
2018-02-19T10:59:49.673Z,42.60
2018-02-19T11:02:17.402Z,42.30
2018-02-19T11:04:45.139Z,41.30
2018-02-19T11:07:13.772Z,41.90
2018-02-19T11:09:41.476Z,41.40
2018-02-19T11:12:09.204Z,39.50
2018-02-19T11:14:37.134Z,40.10
2018-02-19T11:17:05.589Z,39.40
2018-02-19T11:19:33.708Z,39.40
2018-02-19T11:22:01.386Z,39.80
2018-02-19T11:24:29.365Z,38.70
2018-02-19T11:26:57.156Z,39.90
2018-02-19T11:29:24.848Z,41.00
2018-02-19T11:31:53.113Z,41.40
2018-02-19T11:34:33.258Z,40.80
2018-02-19T11:37:01.412Z,40.90
2018-02-19T11:39:29.118Z,41.00
2018-02-19T11:41:56.843Z,40.40
2018-02-19T11:44:24.510Z,38.60
2018-02-19T11:46:52.252Z,40.70
2018-02-19T11:49:20.102Z,40.30
2018-02-19T11:51:47.860Z,40.90
2018-02-19T11:54:15.532Z,39.00
2018-02-19T11:56:43.755Z,39.40
2018-02-19T11:59:11.583Z,40.00
2018-02-19T12:01:40.546Z,41.30
2018-02-19T12:04:08.286Z,41.20
2018-02-19T12:06:35.935Z,42.00
2018-02-19T12:09:03.826Z,40.40
2018-02-19T12:11:31.804Z,42.20
2018-02-19T12:13:59.520Z,40.80
2018-02-19T12:16:27.212Z,40.50
2018-02-19T12:18:54.917Z,42.80
2018-02-19T12:21:22.609Z,44.50
2018-02-19T12:23:50.443Z,43.80
2018-02-19T12:26:18.619Z,45.70
2018-02-19T12:28:47.234Z,46.00
2018-02-19T12:31:15.792Z,46.00
2018-02-19T12:33:44.481Z,44.30
2018-02-19T12:36:12.638Z,47.00
2018-02-19T12:38:40.617Z,46.80
2018-02-19T12:41:08.474Z,47.50
2018-02-19T12:43:36.941Z,47.30
2018-02-19T12:46:05.996Z,47.20
2018-02-19T12:48:34.680Z,47.80
2018-02-19T12:51:02.391Z,47.80
2018-02-19T12:53:30.072Z,47.60
2018-02-19T12:55:57.949Z,47.80
2018-02-19T12:58:26.436Z,47.50
2018-02-19T13:00:54.301Z,48.40
2018-02-19T13:03:22.842Z,47.20
2018-02-19T13:05:51.244Z,47.20
2018-02-19T13:08:19.734Z,46.00
2018-02-19T13:10:47.412Z,46.00
2018-02-19T13:13:15.077Z,45.80
2018-02-19T13:15:43.380Z,45.40
2018-02-19T13:18:14.877Z,46.30
2018-02-19T13:20:42.662Z,46.20
2018-02-19T13:23:11.353Z,46.70
2018-02-19T13:25:39.086Z,46.00
2018-02-19T13:28:08.586Z,44.20
2018-02-19T13:30:36.287Z,44.20
2018-02-19T13:33:04.764Z,43.50
2018-02-19T13:35:33.210Z,44.30
2018-02-19T13:38:00.895Z,43.90
2018-02-19T13:40:28.743Z,44.90
2018-02-19T13:42:56.582Z,44.30
2018-02-19T13:45:24.282Z,42.90
2018-02-19T13:47:51.990Z,44.20
2018-02-19T13:50:21.530Z,43.60
2018-02-19T13:52:49.986Z,45.80
2018-02-19T13:55:18.207Z,45.80
2018-02-19T13:57:45.868Z,44.90
2018-02-19T14:00:13.665Z,46.00
2018-02-19T14:02:42.165Z,44.10
2018-02-19T14:05:09.844Z,44.10
2018-02-19T14:07:37.868Z,45.70
2018-02-19T14:10:05.650Z,46.60
2018-02-19T14:12:33.296Z,45.90
2018-02-19T14:15:01.988Z,45.70
2018-02-19T14:17:30.473Z,46.00
2018-02-19T14:19:59.151Z,45.90
2018-02-19T14:22:26.846Z,45.90
2018-02-19T14:24:54.512Z,45.30
2018-02-19T14:27:22.172Z,47.20
2018-02-19T14:29:49.826Z,46.70
2018-02-19T14:32:17.580Z,47.00
2018-02-19T14:34:45.297Z,46.00
2018-02-19T14:37:13.638Z,45.80
2018-02-19T14:39:41.347Z,46.80
2018-02-19T14:42:09.109Z,47.30
2018-02-19T14:44:36.789Z,46.70
2018-02-19T14:47:05.278Z,47.60
2018-02-19T14:49:32.940Z,47.60
2018-02-19T14:52:01.395Z,47.60
2018-02-19T14:54:29.873Z,47.40
2018-02-19T14:56:57.547Z,47.40
2018-02-19T14:59:25.273Z,47.40
2018-02-19T15:01:52.963Z,48.20
2018-02-19T15:04:20.669Z,48.20
2018-02-19T15:06:48.333Z,49.50
2018-02-19T15:09:16.060Z,49.40
2018-02-19T15:11:43.766Z,48.70
2018-02-19T15:14:12.410Z,49.20
2018-02-19T15:16:43.008Z,47.50
2018-02-19T15:19:10.772Z,47.50
2018-02-19T15:21:38.750Z,48.50
2018-02-19T15:24:07.176Z,47.80
2018-02-19T15:26:35.769Z,48.60
2018-02-19T15:29:03.455Z,47.60
2018-02-19T15:31:31.484Z,49.90
2018-02-19T15:33:59.185Z,48.40
2018-02-19T15:36:26.932Z,49.80
2018-02-19T15:38:55.690Z,48.30
2018-02-19T15:41:24.172Z,50.20
2018-02-19T15:43:52.566Z,49.90
2018-02-19T15:46:20.286Z,49.90
2018-02-19T15:48:48.715Z,49.70
2018-02-19T15:51:16.484Z,50.40
2018-02-19T15:53:44.169Z,50.10
2018-02-19T15:56:11.906Z,50.80
2018-02-19T15:58:40.639Z,49.90
2018-02-19T16:01:16.114Z,48.30
2018-02-19T16:03:45.591Z,49.70
2018-02-19T16:06:14.199Z,49.60
2018-02-19T16:08:41.999Z,51.30
2018-02-19T16:11:10.701Z,49.70
2018-02-19T16:13:38.501Z,50.40
2018-02-19T16:16:07.141Z,51.00
2018-02-19T16:18:35.204Z,51.00
2018-02-19T16:21:03.075Z,49.20
2018-02-19T16:23:30.900Z,51.20
2018-02-19T16:25:59.371Z,51.20
2018-02-19T16:28:28.140Z,50.60
2018-02-19T16:30:56.253Z,50.60
2018-02-19T16:33:24.317Z,51.70
2018-02-19T16:35:51.989Z,50.80
2018-02-19T16:38:19.794Z,51.20
2018-02-19T16:40:47.874Z,51.00
2018-02-19T16:43:15.540Z,51.20
2018-02-19T16:45:43.260Z,51.90
2018-02-19T16:48:11.012Z,51.50
2018-02-19T16:50:38.756Z,51.60
2018-02-19T16:53:06.741Z,51.80
2018-02-19T16:55:34.449Z,53.20
2018-02-19T16:58:02.162Z,51.30
2018-02-19T17:00:29.975Z,52.00
2018-02-19T17:02:57.936Z,52.50
2018-02-19T17:05:25.659Z,51.90
2018-02-19T17:07:53.783Z,52.10
2018-02-19T17:10:21.540Z,51.80
2018-02-19T17:12:49.211Z,52.20
2018-02-19T17:15:16.891Z,52.50
2018-02-19T17:17:45.395Z,51.40
2018-02-19T17:20:13.833Z,52.20
2018-02-19T17:22:42.125Z,52.10
2018-02-19T17:25:10.290Z,51.70
2018-02-19T17:27:38.034Z,52.00
2018-02-19T17:30:05.759Z,51.20
2018-02-19T17:32:33.982Z,51.30
2018-02-19T17:35:13.460Z,52.30
2018-02-19T17:37:48.616Z,52.70
2018-02-19T17:40:16.360Z,53.30
2018-02-19T17:42:45.308Z,53.20
2018-02-19T17:45:13.039Z,53.20
2018-02-19T17:47:41.329Z,52.00
2018-02-19T17:50:09.072Z,52.30
2018-02-19T17:52:36.874Z,52.70
2018-02-19T17:55:04.574Z,52.70
2018-02-19T17:57:32.286Z,53.00
2018-02-19T18:00:00.354Z,53.60
2018-02-19T18:02:28.089Z,53.70
2018-02-19T18:04:56.625Z,53.70
2018-02-19T18:07:24.290Z,53.50
2018-02-19T18:09:51.982Z,53.20
2018-02-19T18:12:19.674Z,53.10
2018-02-19T18:14:47.406Z,53.40
2018-02-19T18:17:15.844Z,54.00
2018-02-19T18:19:43.564Z,54.00
2018-02-19T18:22:11.220Z,53.90
2018-02-19T18:24:39.321Z,53.70
2018-02-19T18:27:06.984Z,53.90
2018-02-19T18:29:34.640Z,53.80
2018-02-19T18:32:03.453Z,54.00
2018-02-19T18:34:31.265Z,54.00
2018-02-19T18:37:05.100Z,54.30
2018-02-19T18:39:33.781Z,54.30
2018-02-19T18:42:01.573Z,54.40
2018-02-19T18:44:29.336Z,53.60
2018-02-19T18:46:57.162Z,53.80
2018-02-19T18:49:24.822Z,53.70
2018-02-19T18:51:52.566Z,54.20
2018-02-19T18:54:20.820Z,54.20
2018-02-19T18:56:48.752Z,54.20
2018-02-19T18:59:17.249Z,54.00
2018-02-19T19:01:44.966Z,54.30
2018-02-19T19:04:12.678Z,54.00
2018-02-19T19:06:40.349Z,53.80
2018-02-19T19:09:19.623Z,54.50
2018-02-19T19:11:47.310Z,54.80
2018-02-19T19:14:15.973Z,55.00
2018-02-19T19:16:43.641Z,54.60
2018-02-19T19:19:13.073Z,54.80
2018-02-19T19:21:40.937Z,54.80
2018-02-19T19:24:08.722Z,54.80
2018-02-19T19:26:37.498Z,54.70
2018-02-19T19:29:05.213Z,54.60
2018-02-19T19:31:36.997Z,55.70
2018-02-19T19:34:04.803Z,54.50
2018-02-19T19:36:33.170Z,54.90
2018-02-19T19:39:01.037Z,55.40
2018-02-19T19:41:28.821Z,55.40
2018-02-19T19:43:57.082Z,55.70
2018-02-19T19:46:25.215Z,55.80
2018-02-19T19:48:53.175Z,55.90
2018-02-19T19:51:21.091Z,56.20
2018-02-19T19:53:49.594Z,56.70
2018-02-19T19:56:18.161Z,56.00
2018-02-19T19:58:45.873Z,55.90
2018-02-19T20:01:14.120Z,56.10
2018-02-19T20:03:41.875Z,55.40
2018-02-19T20:06:10.776Z,56.10
2018-02-19T20:08:39.304Z,56.40
2018-02-19T20:11:08.085Z,56.30
2018-02-19T20:13:35.874Z,55.70
2018-02-19T20:16:03.812Z,56.30
2018-02-19T20:18:31.567Z,56.20
2018-02-19T20:20:59.517Z,56.00
2018-02-19T20:23:28.023Z,56.40
2018-02-19T20:25:55.765Z,56.40
2018-02-19T20:28:23.623Z,57.00
2018-02-19T20:30:52.020Z,57.10
2018-02-19T20:33:19.759Z,56.80
2018-02-19T20:35:49.079Z,57.00
2018-02-19T20:38:17.028Z,57.00
2018-02-19T20:40:45.104Z,56.00
2018-02-19T20:43:14.358Z,55.80
2018-02-19T20:45:43.257Z,56.60
2018-02-19T20:48:11.754Z,56.40
2018-02-19T20:50:39.425Z,56.50
2018-02-19T20:53:08.273Z,56.90
2018-02-19T20:55:35.964Z,56.90
2018-02-19T20:58:03.736Z,57.40
2018-02-19T21:00:31.839Z,56.70
2018-02-19T21:03:00.572Z,56.90
2018-02-19T21:05:28.382Z,56.60
2018-02-19T21:07:56.292Z,56.80
2018-02-19T21:10:24.033Z,57.20
2018-02-19T21:12:52.060Z,56.20
2018-02-19T21:15:19.866Z,56.80
2018-02-19T21:17:47.872Z,56.70
2018-02-19T21:20:15.896Z,56.50
2018-02-19T21:22:44.277Z,56.80
2018-02-19T21:25:14.310Z,56.80
2018-02-19T21:27:42.389Z,56.80
2018-02-19T21:30:11.024Z,57.20
2018-02-19T21:32:39.648Z,57.00
2018-02-19T21:35:07.408Z,57.00
2018-02-19T21:37:35.187Z,57.40
2018-02-19T21:40:02.984Z,57.70
2018-02-19T21:42:30.856Z,57.80
2018-02-19T21:44:58.830Z,57.80
2018-02-19T21:47:26.556Z,57.70
2018-02-19T21:49:55.064Z,57.50
2018-02-19T21:52:22.931Z,57.80
2018-02-19T21:54:50.632Z,57.80
2018-02-19T21:57:18.570Z,58.30
2018-02-19T21:59:46.318Z,58.40
2018-02-19T22:02:14.027Z,58.30
2018-02-19T22:04:41.733Z,58.50
2018-02-19T22:07:10.165Z,58.90
2018-02-19T22:09:37.876Z,58.50
2018-02-19T22:12:05.674Z,58.50
2018-02-19T22:14:34.366Z,58.60
2018-02-19T22:17:03.090Z,58.50
2018-02-19T22:19:31.255Z,58.40
2018-02-19T22:22:00.147Z,58.40
2018-02-19T22:24:28.000Z,58.60
2018-02-19T22:26:55.895Z,58.90
2018-02-19T22:29:23.614Z,59.20
2018-02-19T22:31:51.305Z,59.40
2018-02-19T22:34:19.094Z,59.40
2018-02-19T22:36:47.358Z,59.30
2018-02-19T22:39:15.152Z,59.50
2018-02-19T22:41:43.921Z,59.40
2018-02-19T22:44:11.637Z,59.60
2018-02-19T22:46:39.379Z,59.60
2018-02-19T22:49:08.035Z,59.80
2018-02-19T22:51:36.043Z,59.80
2018-02-19T22:54:03.827Z,59.80
2018-02-19T22:56:32.620Z,60.10
2018-02-19T22:59:00.302Z,60.30
2018-02-19T23:01:28.090Z,60.10
2018-02-19T23:03:55.791Z,60.30
2018-02-19T23:06:23.471Z,60.40
2018-02-19T23:08:51.136Z,60.60
2018-02-19T23:11:18.959Z,60.60
2018-02-19T23:13:46.848Z,60.90
2018-02-19T23:16:14.637Z,60.80
2018-02-19T23:18:42.294Z,60.80
2018-02-19T23:21:10.564Z,60.90
2018-02-19T23:23:38.418Z,61.30
2018-02-19T23:26:06.147Z,61.40
2018-02-19T23:28:33.948Z,61.70
2018-02-19T23:31:01.670Z,62.30
2018-02-19T23:33:29.458Z,61.80
2018-02-19T23:35:57.272Z,62.00
2018-02-19T23:38:25.054Z,62.00
2018-02-19T23:40:53.613Z,61.80
2018-02-19T23:43:21.289Z,61.80
2018-02-19T23:45:49.003Z,62.10
2018-02-19T23:48:17.394Z,62.70
2018-02-19T23:50:45.320Z,63.00
2018-02-19T23:53:15.352Z,63.40
2018-02-19T23:55:44.043Z,62.70
2018-02-19T23:58:12.552Z,63.20
